<?xml version="1.0" encoding="UTF-8" standalone="no" ?>
<gpx xmlns="http://www.topografix.com/GPX/1/1" xmlns:xsi="http://www.w3.org/2001/XMLSchema-instance" xsi:schemaLocation="http://www.topografix.com/GPX/1/1 http://www.topografix.com/GPX/1/1/gpx.xsd" version="1.1" creator="VisuGPX - https://www.visugpx.com">
  <metadata>
    <name>25: Corniche de la Verenne</name>
    <desc><![CDATA[25: Corniche de la Verenne]]></desc>
  </metadata>
  <wpt lat="43.83631" lon="3.12279">
    <ele>520</ele>
    <name><![CDATA[Accueil PdC Centre]]></name>
  </wpt>
  <wpt lat="43.83657" lon="3.11798">
    <ele>530.1</ele>
    <name><![CDATA[PCD]]></name>
  </wpt>
  <wpt lat="43.83852" lon="3.10886">
    <ele>545</ele>
    <name><![CDATA[SBA]]></name>
  </wpt>
  <wpt lat="43.84037" lon="3.10487">
    <ele>550</ele>
    <name><![CDATA[MDF]]></name>
  </wpt>
  <wpt lat="43.84143" lon="3.10122">
    <ele>555</ele>
    <name><![CDATA[VRA]]></name>
  </wpt>
  <wpt lat="43.8444" lon="3.0968">
    <ele>560.1</ele>
    <name><![CDATA[VRB]]></name>
  </wpt>
  <wpt lat="43.84553" lon="3.09358">
    <ele>580</ele>
    <name><![CDATA[VRC]]></name>
  </wpt>
  <wpt lat="43.84472" lon="3.09009">
    <ele>589.9</ele>
    <name><![CDATA[VRX]]></name>
  </wpt>
  <wpt lat="43.84182" lon="3.08743">
    <ele>605</ele>
    <name><![CDATA[VRY]]></name>
  </wpt>
  <wpt lat="43.84094" lon="3.08641">
    <ele>610.1</ele>
    <name><![CDATA[VRD]]></name>
  </wpt>
  <wpt lat="43.84035" lon="3.07557">
    <ele>675</ele>
    <name><![CDATA[VRE]]></name>
  </wpt>
  <wpt lat="43.84043" lon="3.07285">
    <ele>685.1</ele>
    <name><![CDATA[VRF]]></name>
  </wpt>
  <wpt lat="43.84145" lon="3.06783">
    <ele>710.1</ele>
    <name><![CDATA[VRG]]></name>
  </wpt>
  <wpt lat="43.84032" lon="3.06822">
    <ele>710.1</ele>
    <name><![CDATA[VRH]]></name>
  </wpt>
  <wpt lat="43.84006" lon="3.06987">
    <ele>719.9</ele>
    <name><![CDATA[VRI]]></name>
  </wpt>
  <wpt lat="43.83766" lon="3.0705">
    <ele>740.1</ele>
    <name><![CDATA[AMF]]></name>
  </wpt>
  <wpt lat="43.83827" lon="3.07292">
    <ele>750</ele>
    <name><![CDATA[AMC]]></name>
  </wpt>
  <wpt lat="43.8389" lon="3.07721">
    <ele>735.1</ele>
    <name><![CDATA[AMD]]></name>
  </wpt>
  <wpt lat="43.83855" lon="3.08263">
    <ele>690.1</ele>
    <name><![CDATA[AME]]></name>
  </wpt>
  <wpt lat="43.835" lon="3.08116">
    <ele>655</ele>
    <name><![CDATA[CSA]]></name>
  </wpt>
  <wpt lat="43.83554" lon="3.08208">
    <ele>650</ele>
    <name><![CDATA[CSB]]></name>
  </wpt>
  <wpt lat="43.83608" lon="3.08231">
    <ele>650</ele>
    <name><![CDATA[PUB]]></name>
  </wpt>
  <wpt lat="43.84166" lon="3.08886">
    <ele>625</ele>
    <name><![CDATA[CIG]]></name>
  </wpt>
  <wpt lat="43.8436" lon="3.08978">
    <ele>619.9</ele>
    <name><![CDATA[CIF]]></name>
  </wpt>
  <wpt lat="43.84444" lon="3.09339">
    <ele>605</ele>
    <name><![CDATA[CIE]]></name>
  </wpt>
  <wpt lat="43.84379" lon="3.0956">
    <ele>589.9</ele>
    <name><![CDATA[BFA]]></name>
  </wpt>
  <wpt lat="43.84034" lon="3.10182">
    <ele>600</ele>
    <name><![CDATA[CID]]></name>
  </wpt>
  <wpt lat="43.83949" lon="3.09734">
    <ele>600</ele>
    <name><![CDATA[RRC]]></name>
  </wpt>
  <wpt lat="43.83901" lon="3.09634">
    <ele>600</ele>
    <name><![CDATA[CIC]]></name>
  </wpt>
  <wpt lat="43.83921" lon="3.09874">
    <ele>600</ele>
    <name><![CDATA[CIB]]></name>
  </wpt>
  <wpt lat="43.83778" lon="3.10063">
    <ele>589.9</ele>
    <name><![CDATA[CIA]]></name>
  </wpt>
  <trk>
    <name><![CDATA[RoTr 25 PdC]]></name>
    <trkseg>
      <trkpt lat="43.83657" lon="3.11796">
        <ele>535</ele>
        <time>2010-01-01T00:00:00Z</time>
      </trkpt>
      <trkpt lat="43.83657" lon="3.11736">
        <ele>535</ele>
        <time>2010-01-01T00:01:01Z</time>
      </trkpt>
      <trkpt lat="43.83653" lon="3.11697">
        <ele>538</ele>
        <time>2010-01-01T00:01:43Z</time>
      </trkpt>
      <trkpt lat="43.83668" lon="3.11564">
        <ele>543</ele>
        <time>2010-01-01T00:04:03Z</time>
      </trkpt>
      <trkpt lat="43.83684" lon="3.11478">
        <ele>549</ele>
        <time>2010-01-01T00:05:35Z</time>
      </trkpt>
      <trkpt lat="43.83773" lon="3.11139">
        <ele>558</ele>
        <time>2010-01-01T00:11:52Z</time>
      </trkpt>
      <trkpt lat="43.83772" lon="3.11082">
        <ele>561</ele>
        <time>2010-01-01T00:12:51Z</time>
      </trkpt>
      <trkpt lat="43.83821" lon="3.10925">
        <ele>554</ele>
        <time>2010-01-01T00:15:49Z</time>
      </trkpt>
      <trkpt lat="43.83851" lon="3.10883">
        <ele>555</ele>
        <time>2010-01-01T00:16:51Z</time>
      </trkpt>
      <trkpt lat="43.83853" lon="3.10881">
        <ele>555</ele>
        <time>2010-01-01T00:16:54Z</time>
      </trkpt>
      <trkpt lat="43.83897" lon="3.10809">
        <ele>556</ele>
        <time>2010-01-01T00:18:32Z</time>
      </trkpt>
      <trkpt lat="43.83932" lon="3.10747">
        <ele>558</ele>
        <time>2010-01-01T00:19:55Z</time>
      </trkpt>
      <trkpt lat="43.8405" lon="3.10519">
        <ele>564</ele>
        <time>2010-01-01T00:24:48Z</time>
      </trkpt>
      <trkpt lat="43.84048" lon="3.10503">
        <ele>563</ele>
        <time>2010-01-01T00:25:04Z</time>
      </trkpt>
      <trkpt lat="43.84038" lon="3.10488">
        <ele>564</ele>
        <time>2010-01-01T00:25:25Z</time>
      </trkpt>
      <trkpt lat="43.84037" lon="3.10487">
        <ele>564</ele>
        <time>2010-01-01T00:25:27Z</time>
      </trkpt>
      <trkpt lat="43.84025" lon="3.10475">
        <ele>564</ele>
        <time>2010-01-01T00:25:48Z</time>
      </trkpt>
      <trkpt lat="43.84015" lon="3.10458">
        <ele>565</ele>
        <time>2010-01-01T00:26:11Z</time>
      </trkpt>
      <trkpt lat="43.83962" lon="3.10292">
        <ele>586</ele>
        <time>2010-01-01T00:29:21Z</time>
      </trkpt>
      <trkpt lat="43.83931" lon="3.10183">
        <ele>584</ele>
        <time>2010-01-01T00:31:22Z</time>
      </trkpt>
      <trkpt lat="43.83913" lon="3.1014">
        <ele>582</ele>
        <time>2010-01-01T00:32:14Z</time>
      </trkpt>
      <trkpt lat="43.83897" lon="3.10125">
        <ele>585</ele>
        <time>2010-01-01T00:32:42Z</time>
      </trkpt>
      <trkpt lat="43.83781" lon="3.10066">
        <ele>605</ele>
        <time>2010-01-01T00:35:41Z</time>
      </trkpt>
      <trkpt lat="43.83779" lon="3.10068">
        <ele>605</ele>
        <time>2010-01-01T00:35:44Z</time>
      </trkpt>
      <trkpt lat="43.83778" lon="3.10066">
        <ele>605</ele>
        <time>2010-01-01T00:35:47Z</time>
      </trkpt>
      <trkpt lat="43.83772" lon="3.10063">
        <ele>606</ele>
        <time>2010-01-01T00:35:55Z</time>
      </trkpt>
      <trkpt lat="43.8377" lon="3.1005">
        <ele>608</ele>
        <time>2010-01-01T00:36:08Z</time>
      </trkpt>
      <trkpt lat="43.83776" lon="3.10041">
        <ele>609</ele>
        <time>2010-01-01T00:36:22Z</time>
      </trkpt>
      <trkpt lat="43.83891" lon="3.10011">
        <ele>597</ele>
        <time>2010-01-01T00:39:11Z</time>
      </trkpt>
      <trkpt lat="43.83905" lon="3.09988">
        <ele>597</ele>
        <time>2010-01-01T00:39:42Z</time>
      </trkpt>
      <trkpt lat="43.83923" lon="3.09909">
        <ele>603</ele>
        <time>2010-01-01T00:41:08Z</time>
      </trkpt>
      <trkpt lat="43.83923" lon="3.09876">
        <ele>605</ele>
        <time>2010-01-01T00:41:42Z</time>
      </trkpt>
      <trkpt lat="43.83923" lon="3.09874">
        <ele>605</ele>
        <time>2010-01-01T00:41:44Z</time>
      </trkpt>
      <trkpt lat="43.83923" lon="3.09844">
        <ele>607</ele>
        <time>2010-01-01T00:42:16Z</time>
      </trkpt>
      <trkpt lat="43.83915" lon="3.09767">
        <ele>608</ele>
        <time>2010-01-01T00:43:37Z</time>
      </trkpt>
      <trkpt lat="43.83909" lon="3.09697">
        <ele>612</ele>
        <time>2010-01-01T00:44:50Z</time>
      </trkpt>
      <trkpt lat="43.83899" lon="3.09639">
        <ele>620</ele>
        <time>2010-01-01T00:45:52Z</time>
      </trkpt>
      <trkpt lat="43.83901" lon="3.09634">
        <ele>620</ele>
        <time>2010-01-01T00:45:58Z</time>
      </trkpt>
      <trkpt lat="43.83906" lon="3.09627">
        <ele>619</ele>
        <time>2010-01-01T00:46:08Z</time>
      </trkpt>
      <trkpt lat="43.83915" lon="3.09625">
        <ele>618</ele>
        <time>2010-01-01T00:46:21Z</time>
      </trkpt>
      <trkpt lat="43.83927" lon="3.09637">
        <ele>619</ele>
        <time>2010-01-01T00:46:42Z</time>
      </trkpt>
      <trkpt lat="43.83941" lon="3.09677">
        <ele>618</ele>
        <time>2010-01-01T00:47:29Z</time>
      </trkpt>
      <trkpt lat="43.83962" lon="3.09761">
        <ele>617</ele>
        <time>2010-01-01T00:49:01Z</time>
      </trkpt>
      <trkpt lat="43.84003" lon="3.09892">
        <ele>607</ele>
        <time>2010-01-01T00:51:30Z</time>
      </trkpt>
      <trkpt lat="43.84007" lon="3.09939">
        <ele>602</ele>
        <time>2010-01-01T00:52:20Z</time>
      </trkpt>
      <trkpt lat="43.84005" lon="3.10057">
        <ele>593</ele>
        <time>2010-01-01T00:54:23Z</time>
      </trkpt>
      <trkpt lat="43.84031" lon="3.10178">
        <ele>582</ele>
        <time>2010-01-01T00:56:34Z</time>
      </trkpt>
      <trkpt lat="43.84037" lon="3.10183">
        <ele>581</ele>
        <time>2010-01-01T00:56:45Z</time>
      </trkpt>
      <trkpt lat="43.84037" lon="3.10183">
        <ele>581</ele>
        <time>2010-01-01T00:56:45Z</time>
      </trkpt>
      <trkpt lat="43.84043" lon="3.10177">
        <ele>581</ele>
        <time>2010-01-01T00:56:55Z</time>
      </trkpt>
      <trkpt lat="43.84093" lon="3.10022">
        <ele>598</ele>
        <time>2010-01-01T00:59:52Z</time>
      </trkpt>
      <trkpt lat="43.84132" lon="3.09936">
        <ele>599</ele>
        <time>2010-01-01T01:01:39Z</time>
      </trkpt>
      <trkpt lat="43.84194" lon="3.09817">
        <ele>605</ele>
        <time>2010-01-01T01:04:11Z</time>
      </trkpt>
      <trkpt lat="43.84225" lon="3.09772">
        <ele>606</ele>
        <time>2010-01-01T01:05:16Z</time>
      </trkpt>
      <trkpt lat="43.84335" lon="3.09664">
        <ele>596</ele>
        <time>2010-01-01T01:08:31Z</time>
      </trkpt>
      <trkpt lat="43.8436" lon="3.09625">
        <ele>599</ele>
        <time>2010-01-01T01:09:25Z</time>
      </trkpt>
      <trkpt lat="43.84366" lon="3.0961">
        <ele>601</ele>
        <time>2010-01-01T01:09:43Z</time>
      </trkpt>
      <trkpt lat="43.84371" lon="3.0957">
        <ele>607</ele>
        <time>2010-01-01T01:10:26Z</time>
      </trkpt>
      <trkpt lat="43.84376" lon="3.09564">
        <ele>606</ele>
        <time>2010-01-01T01:10:35Z</time>
      </trkpt>
      <trkpt lat="43.84378" lon="3.09561">
        <ele>606</ele>
        <time>2010-01-01T01:10:40Z</time>
      </trkpt>
      <trkpt lat="43.84402" lon="3.09553">
        <ele>600</ele>
        <time>2010-01-01T01:11:15Z</time>
      </trkpt>
      <trkpt lat="43.84426" lon="3.09518">
        <ele>601</ele>
        <time>2010-01-01T01:12:05Z</time>
      </trkpt>
      <trkpt lat="43.84441" lon="3.09474">
        <ele>604</ele>
        <time>2010-01-01T01:12:55Z</time>
      </trkpt>
      <trkpt lat="43.84451" lon="3.09408">
        <ele>608</ele>
        <time>2010-01-01T01:14:05Z</time>
      </trkpt>
      <trkpt lat="43.84452" lon="3.09342">
        <ele>612</ele>
        <time>2010-01-01T01:15:14Z</time>
      </trkpt>
      <trkpt lat="43.84451" lon="3.09332">
        <ele>613</ele>
        <time>2010-01-01T01:15:25Z</time>
      </trkpt>
      <trkpt lat="43.84448" lon="3.09254">
        <ele>615</ele>
        <time>2010-01-01T01:16:46Z</time>
      </trkpt>
      <trkpt lat="43.84438" lon="3.09198">
        <ele>616</ele>
        <time>2010-01-01T01:17:47Z</time>
      </trkpt>
      <trkpt lat="43.84422" lon="3.09144">
        <ele>617</ele>
        <time>2010-01-01T01:18:48Z</time>
      </trkpt>
      <trkpt lat="43.84402" lon="3.09058">
        <ele>617</ele>
        <time>2010-01-01T01:20:22Z</time>
      </trkpt>
      <trkpt lat="43.84382" lon="3.09007">
        <ele>618</ele>
        <time>2010-01-01T01:21:22Z</time>
      </trkpt>
      <trkpt lat="43.84362" lon="3.08981">
        <ele>620</ele>
        <time>2010-01-01T01:22:02Z</time>
      </trkpt>
      <trkpt lat="43.8436" lon="3.08977">
        <ele>620</ele>
        <time>2010-01-01T01:22:08Z</time>
      </trkpt>
      <trkpt lat="43.8433" lon="3.08948">
        <ele>620</ele>
        <time>2010-01-01T01:22:59Z</time>
      </trkpt>
      <trkpt lat="43.84282" lon="3.08916">
        <ele>624</ele>
        <time>2010-01-01T01:24:17Z</time>
      </trkpt>
      <trkpt lat="43.84191" lon="3.08878">
        <ele>631</ele>
        <time>2010-01-01T01:26:34Z</time>
      </trkpt>
      <trkpt lat="43.84173" lon="3.08883">
        <ele>635</ele>
        <time>2010-01-01T01:27:01Z</time>
      </trkpt>
      <trkpt lat="43.84171" lon="3.08884">
        <ele>635</ele>
        <time>2010-01-01T01:27:04Z</time>
      </trkpt>
      <trkpt lat="43.84163" lon="3.08876">
        <ele>635</ele>
        <time>2010-01-01T01:27:18Z</time>
      </trkpt>
      <trkpt lat="43.84152" lon="3.08836">
        <ele>629</ele>
        <time>2010-01-01T01:28:03Z</time>
      </trkpt>
      <trkpt lat="43.8413" lon="3.088">
        <ele>630</ele>
        <time>2010-01-01T01:28:52Z</time>
      </trkpt>
      <trkpt lat="43.84108" lon="3.0877">
        <ele>629</ele>
        <time>2010-01-01T01:29:37Z</time>
      </trkpt>
      <trkpt lat="43.84087" lon="3.0876">
        <ele>631</ele>
        <time>2010-01-01T01:30:10Z</time>
      </trkpt>
      <trkpt lat="43.84072" lon="3.08739">
        <ele>630</ele>
        <time>2010-01-01T01:30:40Z</time>
      </trkpt>
      <trkpt lat="43.83977" lon="3.08722">
        <ele>646</ele>
        <time>2010-01-01T01:32:59Z</time>
      </trkpt>
      <trkpt lat="43.83927" lon="3.08681">
        <ele>645</ele>
        <time>2010-01-01T01:34:23Z</time>
      </trkpt>
      <trkpt lat="43.83871" lon="3.08613">
        <ele>649</ele>
        <time>2010-01-01T01:36:10Z</time>
      </trkpt>
      <trkpt lat="43.83821" lon="3.08533">
        <ele>651</ele>
        <time>2010-01-01T01:38:01Z</time>
      </trkpt>
      <trkpt lat="43.8374" lon="3.08385">
        <ele>652</ele>
        <time>2010-01-01T01:41:14Z</time>
      </trkpt>
      <trkpt lat="43.83636" lon="3.08255">
        <ele>657</ele>
        <time>2010-01-01T01:44:36Z</time>
      </trkpt>
      <trkpt lat="43.83606" lon="3.08228">
        <ele>661</ele>
        <time>2010-01-01T01:45:27Z</time>
      </trkpt>
      <trkpt lat="43.83605" lon="3.08227">
        <ele>662</ele>
        <time>2010-01-01T01:45:30Z</time>
      </trkpt>
      <trkpt lat="43.83551" lon="3.08197">
        <ele>666</ele>
        <time>2010-01-01T01:46:54Z</time>
      </trkpt>
      <trkpt lat="43.8352" lon="3.08166">
        <ele>664</ele>
        <time>2010-01-01T01:47:50Z</time>
      </trkpt>
      <trkpt lat="43.83505" lon="3.08118">
        <ele>665</ele>
        <time>2010-01-01T01:48:44Z</time>
      </trkpt>
      <trkpt lat="43.83505" lon="3.08113">
        <ele>665</ele>
        <time>2010-01-01T01:48:49Z</time>
      </trkpt>
      <trkpt lat="43.83512" lon="3.08105">
        <ele>665</ele>
        <time>2010-01-01T01:49:02Z</time>
      </trkpt>
      <trkpt lat="43.8357" lon="3.08122">
        <ele>667</ele>
        <time>2010-01-01T01:50:28Z</time>
      </trkpt>
      <trkpt lat="43.83612" lon="3.08124">
        <ele>673</ele>
        <time>2010-01-01T01:51:28Z</time>
      </trkpt>
      <trkpt lat="43.83652" lon="3.0814">
        <ele>676</ele>
        <time>2010-01-01T01:52:28Z</time>
      </trkpt>
      <trkpt lat="43.8385" lon="3.0826">
        <ele>674</ele>
        <time>2010-01-01T01:57:41Z</time>
      </trkpt>
      <trkpt lat="43.83852" lon="3.08258">
        <ele>673</ele>
        <time>2010-01-01T01:57:45Z</time>
      </trkpt>
      <trkpt lat="43.83861" lon="3.0825">
        <ele>673</ele>
        <time>2010-01-01T01:58:00Z</time>
      </trkpt>
      <trkpt lat="43.83877" lon="3.08103">
        <ele>692</ele>
        <time>2010-01-01T02:00:34Z</time>
      </trkpt>
      <trkpt lat="43.83879" lon="3.0802">
        <ele>698</ele>
        <time>2010-01-01T02:02:02Z</time>
      </trkpt>
      <trkpt lat="43.83877" lon="3.07896">
        <ele>707</ele>
        <time>2010-01-01T02:04:11Z</time>
      </trkpt>
      <trkpt lat="43.83888" lon="3.078">
        <ele>708</ele>
        <time>2010-01-01T02:05:52Z</time>
      </trkpt>
      <trkpt lat="43.83892" lon="3.07722">
        <ele>708</ele>
        <time>2010-01-01T02:07:13Z</time>
      </trkpt>
      <trkpt lat="43.83891" lon="3.07718">
        <ele>708</ele>
        <time>2010-01-01T02:07:18Z</time>
      </trkpt>
      <trkpt lat="43.83889" lon="3.07696">
        <ele>708</ele>
        <time>2010-01-01T02:07:41Z</time>
      </trkpt>
      <trkpt lat="43.83865" lon="3.07676">
        <ele>716</ele>
        <time>2010-01-01T02:08:21Z</time>
      </trkpt>
      <trkpt lat="43.83829" lon="3.07665">
        <ele>726</ele>
        <time>2010-01-01T02:09:14Z</time>
      </trkpt>
      <trkpt lat="43.83825" lon="3.07647">
        <ele>728</ele>
        <time>2010-01-01T02:09:33Z</time>
      </trkpt>
      <trkpt lat="43.83834" lon="3.07594">
        <ele>727</ele>
        <time>2010-01-01T02:10:30Z</time>
      </trkpt>
      <trkpt lat="43.83831" lon="3.07561">
        <ele>732</ele>
        <time>2010-01-01T02:11:04Z</time>
      </trkpt>
      <trkpt lat="43.83834" lon="3.07548">
        <ele>732</ele>
        <time>2010-01-01T02:11:20Z</time>
      </trkpt>
      <trkpt lat="43.83873" lon="3.07529">
        <ele>724</ele>
        <time>2010-01-01T02:12:18Z</time>
      </trkpt>
      <trkpt lat="43.83884" lon="3.0751">
        <ele>723</ele>
        <time>2010-01-01T02:12:44Z</time>
      </trkpt>
      <trkpt lat="43.83887" lon="3.07476">
        <ele>725</ele>
        <time>2010-01-01T02:13:20Z</time>
      </trkpt>
      <trkpt lat="43.83883" lon="3.07445">
        <ele>728</ele>
        <time>2010-01-01T02:13:53Z</time>
      </trkpt>
      <trkpt lat="43.83864" lon="3.07409">
        <ele>735</ele>
        <time>2010-01-01T02:14:39Z</time>
      </trkpt>
      <trkpt lat="43.83836" lon="3.07385">
        <ele>744</ele>
        <time>2010-01-01T02:15:26Z</time>
      </trkpt>
      <trkpt lat="43.83818" lon="3.07377">
        <ele>749</ele>
        <time>2010-01-01T02:15:54Z</time>
      </trkpt>
      <trkpt lat="43.83814" lon="3.07357">
        <ele>750</ele>
        <time>2010-01-01T02:16:15Z</time>
      </trkpt>
      <trkpt lat="43.83836" lon="3.0732">
        <ele>745</ele>
        <time>2010-01-01T02:17:05Z</time>
      </trkpt>
      <trkpt lat="43.8384" lon="3.07296">
        <ele>743</ele>
        <time>2010-01-01T02:17:31Z</time>
      </trkpt>
      <trkpt lat="43.83831" lon="3.07289">
        <ele>745</ele>
        <time>2010-01-01T02:17:45Z</time>
      </trkpt>
      <trkpt lat="43.83831" lon="3.07288">
        <ele>745</ele>
        <time>2010-01-01T02:17:46Z</time>
      </trkpt>
      <trkpt lat="43.83837" lon="3.07267">
        <ele>743</ele>
        <time>2010-01-01T02:18:10Z</time>
      </trkpt>
      <trkpt lat="43.83833" lon="3.0725">
        <ele>744</ele>
        <time>2010-01-01T02:18:28Z</time>
      </trkpt>
      <trkpt lat="43.83816" lon="3.07214">
        <ele>745</ele>
        <time>2010-01-01T02:19:14Z</time>
      </trkpt>
      <trkpt lat="43.83798" lon="3.07159">
        <ele>746</ele>
        <time>2010-01-01T02:20:16Z</time>
      </trkpt>
      <trkpt lat="43.83788" lon="3.07119">
        <ele>747</ele>
        <time>2010-01-01T02:21:00Z</time>
      </trkpt>
      <trkpt lat="43.83769" lon="3.07071">
        <ele>750</ele>
        <time>2010-01-01T02:21:57Z</time>
      </trkpt>
      <trkpt lat="43.83768" lon="3.07047">
        <ele>753</ele>
        <time>2010-01-01T02:22:23Z</time>
      </trkpt>
      <trkpt lat="43.83769" lon="3.07045">
        <ele>753</ele>
        <time>2010-01-01T02:22:25Z</time>
      </trkpt>
      <trkpt lat="43.83781" lon="3.07035">
        <ele>753</ele>
        <time>2010-01-01T02:22:46Z</time>
      </trkpt>
      <trkpt lat="43.83808" lon="3.07037">
        <ele>749</ele>
        <time>2010-01-01T02:23:25Z</time>
      </trkpt>
      <trkpt lat="43.83882" lon="3.07068">
        <ele>735</ele>
        <time>2010-01-01T02:25:16Z</time>
      </trkpt>
      <trkpt lat="43.83959" lon="3.07081">
        <ele>719</ele>
        <time>2010-01-01T02:27:09Z</time>
      </trkpt>
      <trkpt lat="43.83977" lon="3.07073">
        <ele>716</ele>
        <time>2010-01-01T02:27:35Z</time>
      </trkpt>
      <trkpt lat="43.83999" lon="3.07027">
        <ele>715</ele>
        <time>2010-01-01T02:28:32Z</time>
      </trkpt>
      <trkpt lat="43.84006" lon="3.06989">
        <ele>716</ele>
        <time>2010-01-01T02:29:13Z</time>
      </trkpt>
      <trkpt lat="43.84007" lon="3.06983">
        <ele>715</ele>
        <time>2010-01-01T02:29:19Z</time>
      </trkpt>
      <trkpt lat="43.84002" lon="3.06958">
        <ele>715</ele>
        <time>2010-01-01T02:29:47Z</time>
      </trkpt>
      <trkpt lat="43.8398" lon="3.06901">
        <ele>720</ele>
        <time>2010-01-01T02:30:53Z</time>
      </trkpt>
      <trkpt lat="43.83973" lon="3.06882">
        <ele>722</ele>
        <time>2010-01-01T02:31:16Z</time>
      </trkpt>
      <trkpt lat="43.83973" lon="3.06864">
        <ele>721</ele>
        <time>2010-01-01T02:31:34Z</time>
      </trkpt>
      <trkpt lat="43.83983" lon="3.0684">
        <ele>718</ele>
        <time>2010-01-01T02:32:03Z</time>
      </trkpt>
      <trkpt lat="43.83995" lon="3.0683">
        <ele>716</ele>
        <time>2010-01-01T02:32:24Z</time>
      </trkpt>
      <trkpt lat="43.8401" lon="3.06832">
        <ele>714</ele>
        <time>2010-01-01T02:32:45Z</time>
      </trkpt>
      <trkpt lat="43.84031" lon="3.06833">
        <ele>713</ele>
        <time>2010-01-01T02:33:16Z</time>
      </trkpt>
      <trkpt lat="43.84034" lon="3.06832">
        <ele>713</ele>
        <time>2010-01-01T02:33:20Z</time>
      </trkpt>
      <trkpt lat="43.84066" lon="3.0681">
        <ele>712</ele>
        <time>2010-01-01T02:34:11Z</time>
      </trkpt>
      <trkpt lat="43.84112" lon="3.0681">
        <ele>711</ele>
        <time>2010-01-01T02:35:18Z</time>
      </trkpt>
      <trkpt lat="43.84126" lon="3.06799">
        <ele>710</ele>
        <time>2010-01-01T02:35:42Z</time>
      </trkpt>
      <trkpt lat="43.84143" lon="3.0678">
        <ele>708</ele>
        <time>2010-01-01T02:36:12Z</time>
      </trkpt>
      <trkpt lat="43.84144" lon="3.0678">
        <ele>708</ele>
        <time>2010-01-01T02:36:14Z</time>
      </trkpt>
      <trkpt lat="43.84107" lon="3.06886">
        <ele>712</ele>
        <time>2010-01-01T02:38:17Z</time>
      </trkpt>
      <trkpt lat="43.84099" lon="3.06935">
        <ele>710</ele>
        <time>2010-01-01T02:39:09Z</time>
      </trkpt>
      <trkpt lat="43.84097" lon="3.07036">
        <ele>706</ele>
        <time>2010-01-01T02:40:54Z</time>
      </trkpt>
      <trkpt lat="43.84079" lon="3.07073">
        <ele>702</ele>
        <time>2010-01-01T02:41:41Z</time>
      </trkpt>
      <trkpt lat="43.84077" lon="3.07109">
        <ele>702</ele>
        <time>2010-01-01T02:42:19Z</time>
      </trkpt>
      <trkpt lat="43.84039" lon="3.07229">
        <ele>696</ele>
        <time>2010-01-01T02:44:36Z</time>
      </trkpt>
      <trkpt lat="43.84043" lon="3.07282">
        <ele>694</ele>
        <time>2010-01-01T02:45:31Z</time>
      </trkpt>
      <trkpt lat="43.84043" lon="3.07287">
        <ele>693</ele>
        <time>2010-01-01T02:45:37Z</time>
      </trkpt>
      <trkpt lat="43.84045" lon="3.07441">
        <ele>689</ele>
        <time>2010-01-01T02:48:16Z</time>
      </trkpt>
      <trkpt lat="43.84031" lon="3.07494">
        <ele>689</ele>
        <time>2010-01-01T02:49:16Z</time>
      </trkpt>
      <trkpt lat="43.84034" lon="3.07548">
        <ele>688</ele>
        <time>2010-01-01T02:50:12Z</time>
      </trkpt>
      <trkpt lat="43.84033" lon="3.07556">
        <ele>687</ele>
        <time>2010-01-01T02:50:21Z</time>
      </trkpt>
      <trkpt lat="43.84023" lon="3.07681">
        <ele>681</ele>
        <time>2010-01-01T02:52:32Z</time>
      </trkpt>
      <trkpt lat="43.83992" lon="3.07744">
        <ele>674</ele>
        <time>2010-01-01T02:53:52Z</time>
      </trkpt>
      <trkpt lat="43.83942" lon="3.08107">
        <ele>666</ele>
        <time>2010-01-01T03:00:16Z</time>
      </trkpt>
      <trkpt lat="43.83952" lon="3.08148">
        <ele>662</ele>
        <time>2010-01-01T03:01:01Z</time>
      </trkpt>
      <trkpt lat="43.83951" lon="3.08215">
        <ele>657</ele>
        <time>2010-01-01T03:02:12Z</time>
      </trkpt>
      <trkpt lat="43.83957" lon="3.08246">
        <ele>654</ele>
        <time>2010-01-01T03:02:45Z</time>
      </trkpt>
      <trkpt lat="43.83946" lon="3.08268">
        <ele>653</ele>
        <time>2010-01-01T03:03:13Z</time>
      </trkpt>
      <trkpt lat="43.83956" lon="3.08358">
        <ele>647</ele>
        <time>2010-01-01T03:04:48Z</time>
      </trkpt>
      <trkpt lat="43.84005" lon="3.08411">
        <ele>636</ele>
        <time>2010-01-01T03:06:18Z</time>
      </trkpt>
      <trkpt lat="43.8404" lon="3.08512">
        <ele>636</ele>
        <time>2010-01-01T03:08:15Z</time>
      </trkpt>
      <trkpt lat="43.84077" lon="3.08526">
        <ele>627</ele>
        <time>2010-01-01T03:09:11Z</time>
      </trkpt>
      <trkpt lat="43.84082" lon="3.08592">
        <ele>623</ele>
        <time>2010-01-01T03:10:21Z</time>
      </trkpt>
      <trkpt lat="43.84092" lon="3.08638">
        <ele>621</ele>
        <time>2010-01-01T03:11:11Z</time>
      </trkpt>
      <trkpt lat="43.84096" lon="3.0864">
        <ele>621</ele>
        <time>2010-01-01T03:11:17Z</time>
      </trkpt>
      <trkpt lat="43.84149" lon="3.08649">
        <ele>624</ele>
        <time>2010-01-01T03:12:34Z</time>
      </trkpt>
      <trkpt lat="43.84172" lon="3.08673">
        <ele>625</ele>
        <time>2010-01-01T03:13:16Z</time>
      </trkpt>
      <trkpt lat="43.84182" lon="3.08722">
        <ele>622</ele>
        <time>2010-01-01T03:14:09Z</time>
      </trkpt>
      <trkpt lat="43.84182" lon="3.08753">
        <ele>619</ele>
        <time>2010-01-01T03:14:41Z</time>
      </trkpt>
      <trkpt lat="43.84183" lon="3.08757">
        <ele>619</ele>
        <time>2010-01-01T03:14:46Z</time>
      </trkpt>
      <trkpt lat="43.84186" lon="3.08771">
        <ele>620</ele>
        <time>2010-01-01T03:15:01Z</time>
      </trkpt>
      <trkpt lat="43.8422" lon="3.08809">
        <ele>619</ele>
        <time>2010-01-01T03:16:04Z</time>
      </trkpt>
      <trkpt lat="43.84265" lon="3.08836">
        <ele>614</ele>
        <time>2010-01-01T03:17:14Z</time>
      </trkpt>
      <trkpt lat="43.84334" lon="3.08848">
        <ele>615</ele>
        <time>2010-01-01T03:18:55Z</time>
      </trkpt>
      <trkpt lat="43.84394" lon="3.08889">
        <ele>614</ele>
        <time>2010-01-01T03:20:31Z</time>
      </trkpt>
      <trkpt lat="43.84428" lon="3.08921">
        <ele>607</ele>
        <time>2010-01-01T03:21:31Z</time>
      </trkpt>
      <trkpt lat="43.84468" lon="3.08976">
        <ele>607</ele>
        <time>2010-01-01T03:22:53Z</time>
      </trkpt>
      <trkpt lat="43.84468" lon="3.09008">
        <ele>604</ele>
        <time>2010-01-01T03:23:26Z</time>
      </trkpt>
      <trkpt lat="43.84468" lon="3.09013">
        <ele>604</ele>
        <time>2010-01-01T03:23:31Z</time>
      </trkpt>
      <trkpt lat="43.84479" lon="3.09047">
        <ele>603</ele>
        <time>2010-01-01T03:24:10Z</time>
      </trkpt>
      <trkpt lat="43.8448" lon="3.09049">
        <ele>603</ele>
        <time>2010-01-01T03:24:13Z</time>
      </trkpt>
      <trkpt lat="43.84497" lon="3.09073">
        <ele>601</ele>
        <time>2010-01-01T03:24:48Z</time>
      </trkpt>
      <trkpt lat="43.84527" lon="3.09137">
        <ele>602</ele>
        <time>2010-01-01T03:26:08Z</time>
      </trkpt>
      <trkpt lat="43.84531" lon="3.09174">
        <ele>600</ele>
        <time>2010-01-01T03:26:47Z</time>
      </trkpt>
      <trkpt lat="43.84545" lon="3.09223">
        <ele>602</ele>
        <time>2010-01-01T03:27:41Z</time>
      </trkpt>
      <trkpt lat="43.84556" lon="3.09284">
        <ele>601</ele>
        <time>2010-01-01T03:28:46Z</time>
      </trkpt>
      <trkpt lat="43.8456" lon="3.09349">
        <ele>597</ele>
        <time>2010-01-01T03:29:55Z</time>
      </trkpt>
      <trkpt lat="43.84553" lon="3.09357">
        <ele>596</ele>
        <time>2010-01-01T03:30:09Z</time>
      </trkpt>
      <trkpt lat="43.84553" lon="3.09357">
        <ele>596</ele>
        <time>2010-01-01T03:30:09Z</time>
      </trkpt>
      <trkpt lat="43.84545" lon="3.09372">
        <ele>595</ele>
        <time>2010-01-01T03:30:28Z</time>
      </trkpt>
      <trkpt lat="43.84488" lon="3.09569">
        <ele>590</ele>
        <time>2010-01-01T03:34:09Z</time>
      </trkpt>
      <trkpt lat="43.84439" lon="3.0968">
        <ele>584</ele>
        <time>2010-01-01T03:36:25Z</time>
      </trkpt>
      <trkpt lat="43.84439" lon="3.09681">
        <ele>584</ele>
        <time>2010-01-01T03:36:26Z</time>
      </trkpt>
      <trkpt lat="43.84408" lon="3.09737">
        <ele>578</ele>
        <time>2010-01-01T03:37:39Z</time>
      </trkpt>
      <trkpt lat="43.84312" lon="3.09821">
        <ele>577</ele>
        <time>2010-01-01T03:40:24Z</time>
      </trkpt>
      <trkpt lat="43.84197" lon="3.09965">
        <ele>579</ele>
        <time>2010-01-01T03:44:08Z</time>
      </trkpt>
      <trkpt lat="43.84148" lon="3.10124">
        <ele>573</ele>
        <time>2010-01-01T03:47:08Z</time>
      </trkpt>
      <trkpt lat="43.84147" lon="3.10128">
        <ele>573</ele>
        <time>2010-01-01T03:47:13Z</time>
      </trkpt>
      <trkpt lat="43.84134" lon="3.10151">
        <ele>575</ele>
        <time>2010-01-01T03:47:43Z</time>
      </trkpt>
      <trkpt lat="43.84085" lon="3.1035">
        <ele>564</ele>
        <time>2010-01-01T03:51:22Z</time>
      </trkpt>
      <trkpt lat="43.84061" lon="3.10423">
        <ele>561</ele>
        <time>2010-01-01T03:52:46Z</time>
      </trkpt>
      <trkpt lat="43.84042" lon="3.10459">
        <ele>563</ele>
        <time>2010-01-01T03:53:32Z</time>
      </trkpt>
      <trkpt lat="43.84037" lon="3.10486">
        <ele>564</ele>
        <time>2010-01-01T03:54:01Z</time>
      </trkpt>
      <trkpt lat="43.84038" lon="3.10488">
        <ele>564</ele>
        <time>2010-01-01T03:54:03Z</time>
      </trkpt>
      <trkpt lat="43.84048" lon="3.10503">
        <ele>563</ele>
        <time>2010-01-01T03:54:25Z</time>
      </trkpt>
      <trkpt lat="43.8405" lon="3.10518">
        <ele>564</ele>
        <time>2010-01-01T03:54:41Z</time>
      </trkpt>
      <trkpt lat="43.83932" lon="3.10748">
        <ele>558</ele>
        <time>2010-01-01T03:59:35Z</time>
      </trkpt>
      <trkpt lat="43.83889" lon="3.10823">
        <ele>556</ele>
        <time>2010-01-01T04:01:15Z</time>
      </trkpt>
      <trkpt lat="43.83852" lon="3.10881">
        <ele>555</ele>
        <time>2010-01-01T04:02:35Z</time>
      </trkpt>
      <trkpt lat="43.83851" lon="3.10882">
        <ele>555</ele>
        <time>2010-01-01T04:02:38Z</time>
      </trkpt>
      <trkpt lat="43.83821" lon="3.10926">
        <ele>554</ele>
        <time>2010-01-01T04:03:41Z</time>
      </trkpt>
      <trkpt lat="43.83772" lon="3.11081">
        <ele>561</ele>
        <time>2010-01-01T04:06:37Z</time>
      </trkpt>
      <trkpt lat="43.83773" lon="3.11137">
        <ele>558</ele>
        <time>2010-01-01T04:07:36Z</time>
      </trkpt>
      <trkpt lat="43.8373" lon="3.11301">
        <ele>551</ele>
        <time>2010-01-01T04:10:38Z</time>
      </trkpt>
      <trkpt lat="43.83684" lon="3.11474">
        <ele>549</ele>
        <time>2010-01-01T04:13:50Z</time>
      </trkpt>
      <trkpt lat="43.8367" lon="3.11549">
        <ele>544</ele>
        <time>2010-01-01T04:15:11Z</time>
      </trkpt>
      <trkpt lat="43.83653" lon="3.11697">
        <ele>538</ele>
        <time>2010-01-01T04:17:47Z</time>
      </trkpt>
      <trkpt lat="43.83657" lon="3.11737">
        <ele>535</ele>
        <time>2010-01-01T04:18:29Z</time>
      </trkpt>
      <trkpt lat="43.83657" lon="3.11796">
        <ele>535</ele>
        <time>2010-01-01T04:19:30Z</time>
      </trkpt>
    </trkseg>
  </trk>
</gpx>